sensor_id;sensor_type;location;lat;lon;timestamp;P1;durP1;ratioP1;P2;durP2;ratioP2
60665;SDS011;59128;44.642;21.188;2024-03-23T00:55:49;92.90;;;60.17;;
60665;SDS011;59128;44.642;21.188;2024-03-23T00:58:15;85.10;;;55.35;;
60665;SDS011;59128;44.642;21.188;2024-03-23T01:00:41;51.47;;;38.30;;
60665;SDS011;59128;44.642;21.188;2024-03-23T01:03:07;50.80;;;37.08;;
60665;SDS011;59128;44.642;21.188;2024-03-23T01:05:33;48.10;;;35.67;;
60665;SDS011;59128;44.642;21.188;2024-03-23T01:07:59;56.45;;;39.63;;
60665;SDS011;59128;44.642;21.188;2024-03-23T01:10:26;55.00;;;38.70;;
60665;SDS011;59128;44.642;21.188;2024-03-23T01:12:52;44.90;;;31.60;;
60665;SDS011;59128;44.642;21.188;2024-03-23T01:15:18;46.17;;;32.25;;
60665;SDS011;59128;44.642;21.188;2024-03-23T01:17:44;39.63;;;28.83;;
60665;SDS011;59128;44.642;21.188;2024-03-23T01:20:10;36.05;;;26.63;;
60665;SDS011;59128;44.642;21.188;2024-03-23T01:22:36;39.70;;;30.30;;
60665;SDS011;59128;44.642;21.188;2024-03-23T01:25:02;33.97;;;26.63;;
60665;SDS011;59128;44.642;21.188;2024-03-23T01:27:28;38.67;;;28.93;;
60665;SDS011;59128;44.642;21.188;2024-03-23T01:29:54;40.65;;;29.60;;
60665;SDS011;59128;44.642;21.188;2024-03-23T01:32:21;41.40;;;30.30;;
60665;SDS011;59128;44.642;21.188;2024-03-23T01:34:47;36.65;;;26.85;;
60665;SDS011;59128;44.642;21.188;2024-03-23T01:37:13;36.38;;;25.80;;
60665;SDS011;59128;44.642;21.188;2024-03-23T01:39:39;30.33;;;23.45;;
60665;SDS011;59128;44.642;21.188;2024-03-23T01:42:05;29.20;;;21.58;;
60665;SDS011;59128;44.642;21.188;2024-03-23T01:44:31;28.73;;;21.27;;
60665;SDS011;59128;44.642;21.188;2024-03-23T01:46:57;28.83;;;21.45;;
60665;SDS011;59128;44.642;21.188;2024-03-23T01:49:24;27.95;;;21.42;;
60665;SDS011;59128;44.642;21.188;2024-03-23T01:51:50;33.83;;;24.27;;
60665;SDS011;59128;44.642;21.188;2024-03-23T01:54:16;69.25;;;51.22;;
60665;SDS011;59128;44.642;21.188;2024-03-23T01:56:42;72.72;;;46.38;;
60665;SDS011;59128;44.642;21.188;2024-03-23T01:59:08;88.90;;;55.88;;
60665;SDS011;59128;44.642;21.188;2024-03-23T02:01:36;81.97;;;54.40;;
60665;SDS011;59128;44.642;21.188;2024-03-23T02:04:03;83.93;;;56.88;;
60665;SDS011;59128;44.642;21.188;2024-03-23T02:06:29;106.43;;;73.53;;
60665;SDS011;59128;44.642;21.188;2024-03-23T02:08:55;97.90;;;63.60;;
60665;SDS011;59128;44.642;21.188;2024-03-23T02:11:21;137.95;;;86.90;;
60665;SDS011;59128;44.642;21.188;2024-03-23T02:13:47;141.15;;;90.85;;
60665;SDS011;59128;44.642;21.188;2024-03-23T02:16:13;134.25;;;86.53;;
60665;SDS011;59128;44.642;21.188;2024-03-23T02:18:39;123.17;;;79.53;;
60665;SDS011;59128;44.642;21.188;2024-03-23T02:21:05;116.80;;;75.18;;
60665;SDS011;59128;44.642;21.188;2024-03-23T02:23:31;114.13;;;75.43;;
60665;SDS011;59128;44.642;21.188;2024-03-23T02:25:57;79.25;;;53.28;;
60665;SDS011;59128;44.642;21.188;2024-03-23T02:28:23;61.30;;;42.43;;
60665;SDS011;59128;44.642;21.188;2024-03-23T02:30:49;89.57;;;59.92;;
60665;SDS011;59128;44.642;21.188;2024-03-23T02:33:15;156.15;;;96.95;;
60665;SDS011;59128;44.642;21.188;2024-03-23T02:35:43;175.03;;;99.37;;
60665;SDS011;59128;44.642;21.188;2024-03-23T02:38:09;173.25;;;94.80;;
60665;SDS011;59128;44.642;21.188;2024-03-23T02:40:35;89.10;;;53.80;;
60665;SDS011;59128;44.642;21.188;2024-03-23T02:43:02;112.40;;;66.93;;
60665;SDS011;59128;44.642;21.188;2024-03-23T02:45:28;105.73;;;64.33;;
60665;SDS011;59128;44.642;21.188;2024-03-23T02:47:54;267.75;;;149.60;;
60665;SDS011;59128;44.642;21.188;2024-03-23T02:50:20;40.22;;;29.10;;
60665;SDS011;59128;44.642;21.188;2024-03-23T02:52:47;33.60;;;26.10;;
60665;SDS011;59128;44.642;21.188;2024-03-23T02:55:13;36.47;;;26.52;;
60665;SDS011;59128;44.642;21.188;2024-03-23T02:57:40;30.45;;;22.88;;
60665;SDS011;59128;44.642;21.188;2024-03-23T03:00:07;31.50;;;23.80;;
60665;SDS011;59128;44.642;21.188;2024-03-23T03:02:35;32.13;;;24.40;;
60665;SDS011;59128;44.642;21.188;2024-03-23T03:05:02;29.95;;;22.05;;
60665;SDS011;59128;44.642;21.188;2024-03-23T03:07:30;33.72;;;24.05;;
60665;SDS011;59128;44.642;21.188;2024-03-23T03:09:56;31.50;;;21.95;;
60665;SDS011;59128;44.642;21.188;2024-03-23T03:12:22;28.92;;;22.38;;
60665;SDS011;59128;44.642;21.188;2024-03-23T03:14:48;31.42;;;22.30;;
60665;SDS011;59128;44.642;21.188;2024-03-23T03:17:14;175.02;;;95.82;;
60665;SDS011;59128;44.642;21.188;2024-03-23T03:19:40;219.52;;;117.38;;
60665;SDS011;59128;44.642;21.188;2024-03-23T03:22:06;105.45;;;65.00;;
60665;SDS011;59128;44.642;21.188;2024-03-23T03:24:32;43.38;;;30.02;;
60665;SDS011;59128;44.642;21.188;2024-03-23T03:26:58;34.03;;;25.27;;
60665;SDS011;59128;44.642;21.188;2024-03-23T03:29:24;32.28;;;24.63;;
60665;SDS011;59128;44.642;21.188;2024-03-23T03:31:50;35.55;;;26.05;;
60665;SDS011;59128;44.642;21.188;2024-03-23T03:34:16;134.80;;;76.03;;
60665;SDS011;59128;44.642;21.188;2024-03-23T03:36:42;82.37;;;50.43;;
60665;SDS011;59128;44.642;21.188;2024-03-23T03:39:08;84.13;;;51.70;;
60665;SDS011;59128;44.642;21.188;2024-03-23T03:41:35;57.47;;;36.75;;
60665;SDS011;59128;44.642;21.188;2024-03-23T03:44:01;26.75;;;20.85;;
60665;SDS011;59128;44.642;21.188;2024-03-23T03:46:30;25.95;;;19.20;;
60665;SDS011;59128;44.642;21.188;2024-03-23T03:48:56;25.27;;;19.60;;
60665;SDS011;59128;44.642;21.188;2024-03-23T03:51:22;28.08;;;19.50;;
60665;SDS011;59128;44.642;21.188;2024-03-23T03:53:48;21.73;;;17.27;;
60665;SDS011;59128;44.642;21.188;2024-03-23T03:56:14;20.23;;;16.40;;
60665;SDS011;59128;44.642;21.188;2024-03-23T03:58:40;22.63;;;17.63;;
60665;SDS011;59128;44.642;21.188;2024-03-23T04:01:06;25.60;;;19.45;;
60665;SDS011;59128;44.642;21.188;2024-03-23T04:03:32;24.50;;;17.80;;
60665;SDS011;59128;44.642;21.188;2024-03-23T04:05:58;26.85;;;18.90;;
60665;SDS011;59128;44.642;21.188;2024-03-23T04:08:24;23.35;;;17.15;;
60665;SDS011;59128;44.642;21.188;2024-03-23T04:10:50;21.95;;;16.40;;
60665;SDS011;59128;44.642;21.188;2024-03-23T04:13:16;21.70;;;16.45;;
60665;SDS011;59128;44.642;21.188;2024-03-23T04:15:42;22.10;;;16.67;;
60665;SDS011;59128;44.642;21.188;2024-03-23T04:18:08;26.65;;;18.25;;
60665;SDS011;59128;44.642;21.188;2024-03-23T04:20:34;46.33;;;32.50;;
60665;SDS011;59128;44.642;21.188;2024-03-23T04:23:00;39.38;;;28.20;;
60665;SDS011;59128;44.642;21.188;2024-03-23T04:25:26;47.20;;;33.97;;
60665;SDS011;59128;44.642;21.188;2024-03-23T04:27:52;28.75;;;21.00;;
60665;SDS011;59128;44.642;21.188;2024-03-23T04:30:18;23.35;;;18.13;;
60665;SDS011;59128;44.642;21.188;2024-03-23T04:32:46;21.08;;;16.05;;
60665;SDS011;59128;44.642;21.188;2024-03-23T04:35:12;22.98;;;16.55;;
60665;SDS011;59128;44.642;21.188;2024-03-23T04:37:38;23.48;;;16.45;;
60665;SDS011;59128;44.642;21.188;2024-03-23T04:40:08;22.08;;;16.02;;
60665;SDS011;59128;44.642;21.188;2024-03-23T04:42:34;23.58;;;16.63;;
60665;SDS011;59128;44.642;21.188;2024-03-23T04:45:00;22.97;;;16.20;;
60665;SDS011;59128;44.642;21.188;2024-03-23T04:47:26;22.30;;;16.95;;
60665;SDS011;59128;44.642;21.188;2024-03-23T04:49:52;29.57;;;20.53;;
60665;SDS011;59128;44.642;21.188;2024-03-23T04:52:18;35.10;;;27.25;;
60665;SDS011;59128;44.642;21.188;2024-03-23T04:54:44;31.05;;;23.40;;
60665;SDS011;59128;44.642;21.188;2024-03-23T04:57:11;32.13;;;24.15;;
60665;SDS011;59128;44.642;21.188;2024-03-23T04:59:37;31.38;;;23.52;;
60665;SDS011;59128;44.642;21.188;2024-03-23T05:02:03;31.00;;;21.73;;
60665;SDS011;59128;44.642;21.188;2024-03-23T05:04:29;26.63;;;20.52;;
60665;SDS011;59128;44.642;21.188;2024-03-23T05:06:57;28.77;;;22.02;;
60665;SDS011;59128;44.642;21.188;2024-03-23T05:09:23;29.27;;;21.73;;
60665;SDS011;59128;44.642;21.188;2024-03-23T05:11:49;28.60;;;21.65;;
60665;SDS011;59128;44.642;21.188;2024-03-23T05:14:15;29.70;;;22.52;;
60665;SDS011;59128;44.642;21.188;2024-03-23T05:16:41;31.83;;;23.80;;
60665;SDS011;59128;44.642;21.188;2024-03-23T05:19:07;34.08;;;24.13;;
60665;SDS011;59128;44.642;21.188;2024-03-23T05:21:33;34.40;;;25.88;;
60665;SDS011;59128;44.642;21.188;2024-03-23T05:23:59;32.75;;;24.92;;
60665;SDS011;59128;44.642;21.188;2024-03-23T05:26:25;37.28;;;25.90;;
60665;SDS011;59128;44.642;21.188;2024-03-23T05:28:51;34.67;;;28.90;;
60665;SDS011;59128;44.642;21.188;2024-03-23T05:31:27;44.95;;;35.03;;
60665;SDS011;59128;44.642;21.188;2024-03-23T05:33:53;40.60;;;32.13;;
60665;SDS011;59128;44.642;21.188;2024-03-23T05:36:20;38.85;;;28.92;;
60665;SDS011;59128;44.642;21.188;2024-03-23T05:38:46;46.53;;;31.13;;
60665;SDS011;59128;44.642;21.188;2024-03-23T05:41:13;53.30;;;34.72;;
60665;SDS011;59128;44.642;21.188;2024-03-23T05:43:39;49.40;;;33.60;;
60665;SDS011;59128;44.642;21.188;2024-03-23T05:46:05;44.13;;;30.90;;
60665;SDS011;59128;44.642;21.188;2024-03-23T05:48:31;42.17;;;29.38;;
60665;SDS011;59128;44.642;21.188;2024-03-23T05:50:57;37.47;;;27.63;;
60665;SDS011;59128;44.642;21.188;2024-03-23T05:53:23;38.15;;;27.40;;
60665;SDS011;59128;44.642;21.188;2024-03-23T05:55:50;35.08;;;26.02;;
60665;SDS011;59128;44.642;21.188;2024-03-23T05:58:18;33.15;;;25.08;;
60665;SDS011;59128;44.642;21.188;2024-03-23T06:00:45;30.45;;;22.40;;
60665;SDS011;59128;44.642;21.188;2024-03-23T06:03:11;31.30;;;19.55;;
60665;SDS011;59128;44.642;21.188;2024-03-23T06:05:37;28.95;;;20.33;;
60665;SDS011;59128;44.642;21.188;2024-03-23T06:08:03;84.65;;;71.63;;
60665;SDS011;59128;44.642;21.188;2024-03-23T06:10:30;37.78;;;31.80;;
60665;SDS011;59128;44.642;21.188;2024-03-23T06:12:56;34.67;;;25.55;;
60665;SDS011;59128;44.642;21.188;2024-03-23T06:15:24;43.40;;;38.75;;
60665;SDS011;59128;44.642;21.188;2024-03-23T06:17:50;27.27;;;18.75;;
60665;SDS011;59128;44.642;21.188;2024-03-23T06:20:16;62.58;;;56.22;;
60665;SDS011;59128;44.642;21.188;2024-03-23T06:22:43;25.42;;;22.10;;
60665;SDS011;59128;44.642;21.188;2024-03-23T06:25:09;22.08;;;18.05;;
60665;SDS011;59128;44.642;21.188;2024-03-23T06:27:37;28.95;;;24.58;;
60665;SDS011;59128;44.642;21.188;2024-03-23T06:30:04;24.52;;;18.90;;
60665;SDS011;59128;44.642;21.188;2024-03-23T06:32:30;24.08;;;18.83;;
60665;SDS011;59128;44.642;21.188;2024-03-23T06:34:56;22.25;;;18.52;;
60665;SDS011;59128;44.642;21.188;2024-03-23T06:37:22;26.33;;;20.48;;
60665;SDS011;59128;44.642;21.188;2024-03-23T06:39:48;26.30;;;20.60;;
60665;SDS011;59128;44.642;21.188;2024-03-23T06:42:14;28.60;;;21.80;;
60665;SDS011;59128;44.642;21.188;2024-03-23T06:44:40;27.83;;;21.67;;
60665;SDS011;59128;44.642;21.188;2024-03-23T06:47:07;26.52;;;21.00;;
60665;SDS011;59128;44.642;21.188;2024-03-23T06:49:33;26.17;;;20.90;;
60665;SDS011;59128;44.642;21.188;2024-03-23T06:51:59;23.45;;;20.77;;
60665;SDS011;59128;44.642;21.188;2024-03-23T06:54:26;25.85;;;20.95;;
60665;SDS011;59128;44.642;21.188;2024-03-23T06:56:52;20.50;;;16.85;;
60665;SDS011;59128;44.642;21.188;2024-03-23T06:59:18;19.75;;;16.15;;
60665;SDS011;59128;44.642;21.188;2024-03-23T07:01:44;18.37;;;15.70;;
60665;SDS011;59128;44.642;21.188;2024-03-23T07:04:10;18.88;;;15.82;;
60665;SDS011;59128;44.642;21.188;2024-03-23T07:06:42;23.45;;;16.13;;
60665;SDS011;59128;44.642;21.188;2024-03-23T07:09:09;21.25;;;15.82;;
60665;SDS011;59128;44.642;21.188;2024-03-23T07:11:35;21.15;;;16.42;;
60665;SDS011;59128;44.642;21.188;2024-03-23T07:14:01;18.60;;;14.77;;
60665;SDS011;59128;44.642;21.188;2024-03-23T07:16:27;20.27;;;16.10;;
60665;SDS011;59128;44.642;21.188;2024-03-23T07:18:54;20.00;;;17.80;;
60665;SDS011;59128;44.642;21.188;2024-03-23T07:21:20;19.40;;;13.45;;
60665;SDS011;59128;44.642;21.188;2024-03-23T07:23:47;17.73;;;13.55;;
60665;SDS011;59128;44.642;21.188;2024-03-23T07:26:13;17.08;;;15.15;;
60665;SDS011;59128;44.642;21.188;2024-03-23T07:28:39;19.13;;;14.70;;
60665;SDS011;59128;44.642;21.188;2024-03-23T07:31:12;17.48;;;13.25;;
60665;SDS011;59128;44.642;21.188;2024-03-23T07:33:46;18.60;;;14.32;;
60665;SDS011;59128;44.642;21.188;2024-03-23T07:36:12;18.75;;;13.95;;
60665;SDS011;59128;44.642;21.188;2024-03-23T07:38:41;19.23;;;12.43;;
60665;SDS011;59128;44.642;21.188;2024-03-23T07:41:10;16.00;;;11.43;;
60665;SDS011;59128;44.642;21.188;2024-03-23T07:43:37;14.38;;;10.57;;
60665;SDS011;59128;44.642;21.188;2024-03-23T07:46:03;13.68;;;10.80;;
60665;SDS011;59128;44.642;21.188;2024-03-23T07:48:30;14.03;;;11.47;;
60665;SDS011;59128;44.642;21.188;2024-03-23T07:53:22;12.32;;;10.90;;
60665;SDS011;59128;44.642;21.188;2024-03-23T07:55:58;14.52;;;11.35;;
60665;SDS011;59128;44.642;21.188;2024-03-23T07:58:25;12.68;;;11.27;;
60665;SDS011;59128;44.642;21.188;2024-03-23T08:00:52;12.75;;;10.88;;
60665;SDS011;59128;44.642;21.188;2024-03-23T08:03:18;14.55;;;10.18;;
60665;SDS011;59128;44.642;21.188;2024-03-23T08:05:44;15.98;;;11.30;;
60665;SDS011;59128;44.642;21.188;2024-03-23T08:08:10;13.82;;;10.90;;
60665;SDS011;59128;44.642;21.188;2024-03-23T08:10:37;15.48;;;12.23;;
60665;SDS011;59128;44.642;21.188;2024-03-23T08:13:03;14.05;;;9.75;;
60665;SDS011;59128;44.642;21.188;2024-03-23T08:15:30;18.23;;;11.32;;
60665;SDS011;59128;44.642;21.188;2024-03-23T08:17:58;12.35;;;9.35;;
60665;SDS011;59128;44.642;21.188;2024-03-23T08:20:24;17.10;;;9.88;;
60665;SDS011;59128;44.642;21.188;2024-03-23T08:22:50;12.80;;;9.77;;
60665;SDS011;59128;44.642;21.188;2024-03-23T08:25:16;12.65;;;9.90;;
60665;SDS011;59128;44.642;21.188;2024-03-23T08:27:44;14.48;;;10.45;;
60665;SDS011;59128;44.642;21.188;2024-03-23T08:30:10;15.02;;;11.52;;
60665;SDS011;59128;44.642;21.188;2024-03-23T08:32:36;14.20;;;11.65;;
60665;SDS011;59128;44.642;21.188;2024-03-23T08:35:02;14.70;;;11.10;;
60665;SDS011;59128;44.642;21.188;2024-03-23T08:37:28;20.70;;;11.25;;
60665;SDS011;59128;44.642;21.188;2024-03-23T08:39:54;14.80;;;9.77;;
60665;SDS011;59128;44.642;21.188;2024-03-23T08:42:21;13.18;;;9.18;;
60665;SDS011;59128;44.642;21.188;2024-03-23T08:44:47;10.38;;;9.35;;
60665;SDS011;59128;44.642;21.188;2024-03-23T08:47:16;10.52;;;8.27;;
60665;SDS011;59128;44.642;21.188;2024-03-23T08:49:42;16.17;;;9.50;;
60665;SDS011;59128;44.642;21.188;2024-03-23T08:52:10;13.65;;;9.48;;
60665;SDS011;59128;44.642;21.188;2024-03-23T08:54:36;10.48;;;9.25;;
60665;SDS011;59128;44.642;21.188;2024-03-23T08:57:02;13.68;;;8.50;;
60665;SDS011;59128;44.642;21.188;2024-03-23T08:59:28;10.82;;;8.50;;
60665;SDS011;59128;44.642;21.188;2024-03-23T09:01:54;12.25;;;8.75;;
60665;SDS011;59128;44.642;21.188;2024-03-23T09:04:20;13.70;;;8.57;;
60665;SDS011;59128;44.642;21.188;2024-03-23T09:06:46;13.52;;;9.35;;
60665;SDS011;59128;44.642;21.188;2024-03-23T09:09:12;14.65;;;9.15;;
60665;SDS011;59128;44.642;21.188;2024-03-23T09:11:38;11.65;;;9.10;;
60665;SDS011;59128;44.642;21.188;2024-03-23T09:14:04;14.05;;;9.98;;
60665;SDS011;59128;44.642;21.188;2024-03-23T09:16:30;15.07;;;10.60;;
60665;SDS011;59128;44.642;21.188;2024-03-23T09:18:56;19.45;;;10.77;;
60665;SDS011;59128;44.642;21.188;2024-03-23T09:21:22;17.30;;;10.50;;
60665;SDS011;59128;44.642;21.188;2024-03-23T09:23:48;15.55;;;10.70;;
60665;SDS011;59128;44.642;21.188;2024-03-23T09:26:14;16.33;;;11.15;;
60665;SDS011;59128;44.642;21.188;2024-03-23T09:28:41;15.30;;;10.27;;
60665;SDS011;59128;44.642;21.188;2024-03-23T09:31:07;15.37;;;11.03;;
60665;SDS011;59128;44.642;21.188;2024-03-23T09:33:34;16.80;;;10.60;;
60665;SDS011;59128;44.642;21.188;2024-03-23T09:36:04;14.45;;;10.38;;
60665;SDS011;59128;44.642;21.188;2024-03-23T09:38:30;14.30;;;9.27;;
60665;SDS011;59128;44.642;21.188;2024-03-23T09:40:56;15.05;;;9.85;;
60665;SDS011;59128;44.642;21.188;2024-03-23T09:43:22;16.20;;;11.30;;
60665;SDS011;59128;44.642;21.188;2024-03-23T09:45:49;17.00;;;11.80;;
60665;SDS011;59128;44.642;21.188;2024-03-23T09:48:15;15.02;;;11.35;;
60665;SDS011;59128;44.642;21.188;2024-03-23T09:50:41;13.07;;;9.25;;
60665;SDS011;59128;44.642;21.188;2024-03-23T09:53:08;10.23;;;8.27;;
60665;SDS011;59128;44.642;21.188;2024-03-23T09:55:34;11.15;;;7.45;;
60665;SDS011;59128;44.642;21.188;2024-03-23T09:58:01;13.52;;;9.13;;
60665;SDS011;59128;44.642;21.188;2024-03-23T10:00:28;16.20;;;9.82;;
60665;SDS011;59128;44.642;21.188;2024-03-23T10:02:55;13.48;;;7.20;;
60665;SDS011;59128;44.642;21.188;2024-03-23T10:05:23;9.50;;;7.32;;
60665;SDS011;59128;44.642;21.188;2024-03-23T10:07:50;9.27;;;7.00;;
60665;SDS011;59128;44.642;21.188;2024-03-23T10:10:16;11.48;;;7.93;;
60665;SDS011;59128;44.642;21.188;2024-03-23T10:12:46;10.30;;;6.93;;
60665;SDS011;59128;44.642;21.188;2024-03-23T10:15:17;9.82;;;6.53;;
60665;SDS011;59128;44.642;21.188;2024-03-23T10:17:44;11.57;;;6.80;;
60665;SDS011;59128;44.642;21.188;2024-03-23T10:20:10;11.75;;;8.60;;
60665;SDS011;59128;44.642;21.188;2024-03-23T10:22:39;15.77;;;7.28;;
60665;SDS011;59128;44.642;21.188;2024-03-23T10:25:09;15.63;;;7.10;;
60665;SDS011;59128;44.642;21.188;2024-03-23T10:27:35;10.27;;;7.13;;
60665;SDS011;59128;44.642;21.188;2024-03-23T10:30:08;11.82;;;7.60;;
60665;SDS011;59128;44.642;21.188;2024-03-23T10:32:34;8.13;;;5.90;;
60665;SDS011;59128;44.642;21.188;2024-03-23T10:35:19;14.85;;;6.95;;
60665;SDS011;59128;44.642;21.188;2024-03-23T10:37:49;8.43;;;6.75;;
60665;SDS011;59128;44.642;21.188;2024-03-23T10:40:15;8.95;;;6.93;;
60665;SDS011;59128;44.642;21.188;2024-03-23T10:42:41;9.15;;;7.20;;
60665;SDS011;59128;44.642;21.188;2024-03-23T10:45:07;9.75;;;6.82;;
60665;SDS011;59128;44.642;21.188;2024-03-23T10:47:34;8.07;;;6.38;;
60665;SDS011;59128;44.642;21.188;2024-03-23T10:50:01;9.13;;;6.57;;
60665;SDS011;59128;44.642;21.188;2024-03-23T10:52:27;11.63;;;10.43;;
60665;SDS011;59128;44.642;21.188;2024-03-23T10:54:54;11.63;;;10.40;;
60665;SDS011;59128;44.642;21.188;2024-03-23T10:57:21;12.30;;;7.63;;
60665;SDS011;59128;44.642;21.188;2024-03-23T10:59:48;9.80;;;7.82;;
60665;SDS011;59128;44.642;21.188;2024-03-23T11:02:21;16.77;;;12.00;;
60665;SDS011;59128;44.642;21.188;2024-03-23T11:04:47;9.75;;;5.90;;
60665;SDS011;59128;44.642;21.188;2024-03-23T11:09:58;7.75;;;5.55;;
60665;SDS011;59128;44.642;21.188;2024-03-23T11:12:25;7.63;;;6.20;;
60665;SDS011;59128;44.642;21.188;2024-03-23T11:17:21;7.33;;;5.57;;
60665;SDS011;59128;44.642;21.188;2024-03-23T11:20:03;7.03;;;5.35;;
60665;SDS011;59128;44.642;21.188;2024-03-23T11:22:45;10.13;;;5.80;;
60665;SDS011;59128;44.642;21.188;2024-03-23T11:27:43;7.27;;;5.30;;
60665;SDS011;59128;44.642;21.188;2024-03-23T11:30:11;7.38;;;5.10;;
60665;SDS011;59128;44.642;21.188;2024-03-23T11:32:37;8.48;;;5.50;;
60665;SDS011;59128;44.642;21.188;2024-03-23T11:35:03;5.00;;;4.38;;
60665;SDS011;59128;44.642;21.188;2024-03-23T11:37:29;5.75;;;4.50;;
60665;SDS011;59128;44.642;21.188;2024-03-23T11:39:55;12.27;;;8.50;;
60665;SDS011;59128;44.642;21.188;2024-03-23T11:42:21;7.53;;;5.53;;
60665;SDS011;59128;44.642;21.188;2024-03-23T11:44:47;8.75;;;6.38;;
60665;SDS011;59128;44.642;21.188;2024-03-23T11:47:14;7.55;;;5.43;;
60665;SDS011;59128;44.642;21.188;2024-03-23T11:49:40;10.90;;;8.30;;
60665;SDS011;59128;44.642;21.188;2024-03-23T11:52:06;9.35;;;6.07;;
60665;SDS011;59128;44.642;21.188;2024-03-23T11:54:32;9.50;;;5.80;;
60665;SDS011;59128;44.642;21.188;2024-03-23T11:59:32;7.32;;;6.28;;
60665;SDS011;59128;44.642;21.188;2024-03-23T12:01:59;6.53;;;4.53;;
60665;SDS011;59128;44.642;21.188;2024-03-23T12:04:28;8.05;;;5.00;;
60665;SDS011;59128;44.642;21.188;2024-03-23T12:07:13;7.18;;;5.97;;
60665;SDS011;59128;44.642;21.188;2024-03-23T12:09:43;9.23;;;4.03;;
60665;SDS011;59128;44.642;21.188;2024-03-23T12:12:15;7.50;;;5.00;;
60665;SDS011;59128;44.642;21.188;2024-03-23T12:14:45;5.38;;;4.60;;
60665;SDS011;59128;44.642;21.188;2024-03-23T12:17:12;9.35;;;5.30;;
60665;SDS011;59128;44.642;21.188;2024-03-23T12:19:38;8.77;;;7.43;;
60665;SDS011;59128;44.642;21.188;2024-03-23T12:22:06;5.18;;;3.97;;
60665;SDS011;59128;44.642;21.188;2024-03-23T12:24:32;17.48;;;13.88;;
60665;SDS011;59128;44.642;21.188;2024-03-23T12:27:04;6.93;;;5.70;;
60665;SDS011;59128;44.642;21.188;2024-03-23T12:29:31;10.35;;;8.32;;
60665;SDS011;59128;44.642;21.188;2024-03-23T12:32:00;9.75;;;6.07;;
60665;SDS011;59128;44.642;21.188;2024-03-23T12:34:27;4.88;;;4.18;;
60665;SDS011;59128;44.642;21.188;2024-03-23T12:36:53;6.57;;;5.50;;
60665;SDS011;59128;44.642;21.188;2024-03-23T12:39:19;5.70;;;4.50;;
60665;SDS011;59128;44.642;21.188;2024-03-23T12:41:48;8.30;;;7.18;;
60665;SDS011;59128;44.642;21.188;2024-03-23T12:44:14;5.03;;;4.32;;
60665;SDS011;59128;44.642;21.188;2024-03-23T12:46:41;7.50;;;5.80;;
60665;SDS011;59128;44.642;21.188;2024-03-23T12:49:07;7.43;;;5.68;;
60665;SDS011;59128;44.642;21.188;2024-03-23T12:51:33;5.35;;;4.85;;
60665;SDS011;59128;44.642;21.188;2024-03-23T12:53:59;4.82;;;4.20;;
60665;SDS011;59128;44.642;21.188;2024-03-23T12:56:25;6.57;;;5.38;;
60665;SDS011;59128;44.642;21.188;2024-03-23T12:58:55;7.68;;;5.38;;
60665;SDS011;59128;44.642;21.188;2024-03-23T13:01:25;6.20;;;5.57;;
60665;SDS011;59128;44.642;21.188;2024-03-23T13:03:51;6.38;;;4.80;;
60665;SDS011;59128;44.642;21.188;2024-03-23T13:06:18;5.40;;;4.78;;
60665;SDS011;59128;44.642;21.188;2024-03-23T13:08:47;6.40;;;5.13;;
60665;SDS011;59128;44.642;21.188;2024-03-23T13:11:15;13.27;;;8.82;;
60665;SDS011;59128;44.642;21.188;2024-03-23T13:13:41;5.05;;;4.30;;
60665;SDS011;59128;44.642;21.188;2024-03-23T13:16:07;8.98;;;5.82;;
60665;SDS011;59128;44.642;21.188;2024-03-23T13:18:33;7.20;;;4.20;;
60665;SDS011;59128;44.642;21.188;2024-03-23T13:20:59;6.03;;;4.55;;
60665;SDS011;59128;44.642;21.188;2024-03-23T13:23:25;6.32;;;5.45;;
60665;SDS011;59128;44.642;21.188;2024-03-23T13:25:52;8.07;;;5.10;;
60665;SDS011;59128;44.642;21.188;2024-03-23T13:28:19;5.35;;;4.35;;
60665;SDS011;59128;44.642;21.188;2024-03-23T13:30:52;6.60;;;5.10;;
60665;SDS011;59128;44.642;21.188;2024-03-23T13:33:18;7.20;;;5.97;;
60665;SDS011;59128;44.642;21.188;2024-03-23T13:35:53;8.32;;;6.60;;
60665;SDS011;59128;44.642;21.188;2024-03-23T13:38:23;7.17;;;5.20;;
60665;SDS011;59128;44.642;21.188;2024-03-23T13:40:52;8.27;;;7.10;;
60665;SDS011;59128;44.642;21.188;2024-03-23T13:43:19;5.88;;;5.15;;
60665;SDS011;59128;44.642;21.188;2024-03-23T13:45:49;16.27;;;12.63;;
60665;SDS011;59128;44.642;21.188;2024-03-23T13:48:16;6.28;;;4.53;;
60665;SDS011;59128;44.642;21.188;2024-03-23T13:50:43;5.32;;;4.18;;
60665;SDS011;59128;44.642;21.188;2024-03-23T13:53:09;7.70;;;6.10;;
60665;SDS011;59128;44.642;21.188;2024-03-23T13:55:35;18.58;;;15.18;;
60665;SDS011;59128;44.642;21.188;2024-03-23T13:58:01;6.60;;;5.00;;
60665;SDS011;59128;44.642;21.188;2024-03-23T14:00:27;11.13;;;8.02;;
60665;SDS011;59128;44.642;21.188;2024-03-23T14:02:53;5.35;;;4.05;;
60665;SDS011;59128;44.642;21.188;2024-03-23T14:05:19;6.82;;;4.70;;
60665;SDS011;59128;44.642;21.188;2024-03-23T14:07:46;5.53;;;4.63;;
60665;SDS011;59128;44.642;21.188;2024-03-23T14:10:12;5.68;;;4.88;;
60665;SDS011;59128;44.642;21.188;2024-03-23T14:12:38;16.38;;;12.93;;
60665;SDS011;59128;44.642;21.188;2024-03-23T14:15:07;6.78;;;5.47;;
60665;SDS011;59128;44.642;21.188;2024-03-23T14:17:34;10.48;;;6.57;;
60665;SDS011;59128;44.642;21.188;2024-03-23T14:20:00;41.00;;;31.55;;
60665;SDS011;59128;44.642;21.188;2024-03-23T14:22:27;24.70;;;21.95;;
60665;SDS011;59128;44.642;21.188;2024-03-23T14:24:53;9.50;;;7.03;;
60665;SDS011;59128;44.642;21.188;2024-03-23T14:27:19;7.70;;;5.40;;
60665;SDS011;59128;44.642;21.188;2024-03-23T14:29:46;4.35;;;3.95;;
60665;SDS011;59128;44.642;21.188;2024-03-23T14:32:13;8.43;;;5.57;;
60665;SDS011;59128;44.642;21.188;2024-03-23T14:34:39;9.15;;;7.22;;
60665;SDS011;59128;44.642;21.188;2024-03-23T14:37:05;16.65;;;14.93;;
60665;SDS011;59128;44.642;21.188;2024-03-23T14:39:32;7.47;;;4.45;;
60665;SDS011;59128;44.642;21.188;2024-03-23T14:41:59;20.67;;;17.83;;
60665;SDS011;59128;44.642;21.188;2024-03-23T14:44:26;5.28;;;4.47;;
60665;SDS011;59128;44.642;21.188;2024-03-23T14:46:52;4.97;;;4.10;;
60665;SDS011;59128;44.642;21.188;2024-03-23T14:49:20;4.95;;;4.18;;
60665;SDS011;59128;44.642;21.188;2024-03-23T14:51:46;5.33;;;4.30;;
60665;SDS011;59128;44.642;21.188;2024-03-23T14:54:12;5.57;;;4.43;;
60665;SDS011;59128;44.642;21.188;2024-03-23T14:56:39;38.50;;;28.52;;
60665;SDS011;59128;44.642;21.188;2024-03-23T14:59:05;36.67;;;27.27;;
60665;SDS011;59128;44.642;21.188;2024-03-23T15:01:32;33.85;;;25.50;;
60665;SDS011;59128;44.642;21.188;2024-03-23T15:03:58;4.65;;;3.30;;
60665;SDS011;59128;44.642;21.188;2024-03-23T15:06:25;8.20;;;4.70;;
60665;SDS011;59128;44.642;21.188;2024-03-23T15:08:51;6.15;;;4.97;;
60665;SDS011;59128;44.642;21.188;2024-03-23T15:11:17;14.73;;;11.38;;
60665;SDS011;59128;44.642;21.188;2024-03-23T15:13:44;8.65;;;4.85;;
60665;SDS011;59128;44.642;21.188;2024-03-23T15:16:16;9.02;;;7.70;;
60665;SDS011;59128;44.642;21.188;2024-03-23T15:18:43;16.45;;;12.23;;
60665;SDS011;59128;44.642;21.188;2024-03-23T15:21:09;5.15;;;4.63;;